createdAt,value
2017-09-29T00:00:36.946Z,27.83
2017-09-29T00:03:05.832Z,27.70
2017-09-29T00:05:33.907Z,26.47
2017-09-29T00:08:02.765Z,26.03
2017-09-29T00:10:30.872Z,25.67
2017-09-29T00:12:59.720Z,34.37
2017-09-29T00:15:27.834Z,24.67
2017-09-29T00:17:56.701Z,22.47
2017-09-29T00:20:24.796Z,25.67
2017-09-29T00:22:53.647Z,19.87
2017-09-29T00:25:22.664Z,21.67
2017-09-29T00:27:50.771Z,20.87
2017-09-29T00:30:18.905Z,21.40
2017-09-29T00:32:47.028Z,20.07
2017-09-29T00:35:15.124Z,22.33
2017-09-29T00:37:43.210Z,25.27
2017-09-29T00:40:11.327Z,24.27
2017-09-29T00:42:39.433Z,25.27
2017-09-29T00:45:07.535Z,25.27
2017-09-29T00:47:35.647Z,27.97
2017-09-29T00:50:03.751Z,24.00
2017-09-29T00:52:31.854Z,27.13
2017-09-29T00:54:59.969Z,23.17
2017-09-29T00:57:28.056Z,24.80
2017-09-29T00:59:56.137Z,20.47
2017-09-29T01:02:24.248Z,23.37
2017-09-29T01:04:52.344Z,23.33
2017-09-29T01:07:20.451Z,19.67
2017-09-29T01:09:48.558Z,22.00
2017-09-29T01:12:16.663Z,28.50
2017-09-29T01:14:44.756Z,32.00
2017-09-29T01:17:12.873Z,22.27
2017-09-29T01:19:41.030Z,27.07
2017-09-29T01:22:09.128Z,30.60
2017-09-29T01:24:37.236Z,22.10
2017-09-29T01:27:05.336Z,24.13
2017-09-29T01:29:33.452Z,26.80
2017-09-29T01:32:03.219Z,25.37
2017-09-29T01:34:31.331Z,26.20
2017-09-29T01:36:59.439Z,24.10
2017-09-29T01:39:27.534Z,26.23
2017-09-29T01:41:55.644Z,27.57
2017-09-29T01:44:23.737Z,23.33
2017-09-29T01:46:51.874Z,32.10
2017-09-29T01:49:19.964Z,29.73
2017-09-29T01:51:48.290Z,28.53
2017-09-29T01:54:16.455Z,28.63
2017-09-29T01:56:44.573Z,29.83
2017-09-29T01:59:12.658Z,27.40
2017-09-29T02:01:40.762Z,36.00
2017-09-29T02:04:09.708Z,24.60
2017-09-29T02:06:37.796Z,24.37
2017-09-29T02:09:05.971Z,26.40
2017-09-29T02:11:34.063Z,23.00
2017-09-29T02:14:02.942Z,19.43
2017-09-29T02:16:31.051Z,17.60
2017-09-29T02:18:59.143Z,20.80
2017-09-29T02:21:27.235Z,19.83
2017-09-29T02:23:55.337Z,19.07
2017-09-29T02:26:23.459Z,17.47
2017-09-29T02:28:51.602Z,20.30
2017-09-29T02:31:19.704Z,24.50
2017-09-29T02:33:47.875Z,21.00
2017-09-29T02:36:16.029Z,23.23
2017-09-29T02:38:44.135Z,23.27
2017-09-29T02:41:12.255Z,21.80
2017-09-29T02:43:41.184Z,21.00
2017-09-29T02:46:09.269Z,22.37
2017-09-29T02:48:37.384Z,23.13
2017-09-29T02:51:06.644Z,23.53
2017-09-29T02:53:34.751Z,26.43
2017-09-29T02:56:02.920Z,30.23
2017-09-29T02:58:32.201Z,31.70
2017-09-29T03:01:01.792Z,23.20
2017-09-29T03:03:33.461Z,19.70
2017-09-29T03:06:02.879Z,23.97
2017-09-29T03:08:30.976Z,25.50
2017-09-29T03:10:59.853Z,23.27
2017-09-29T03:13:29.664Z,24.83
2017-09-29T03:15:58.534Z,27.50
2017-09-29T03:18:26.637Z,24.83
2017-09-29T03:20:55.596Z,25.60
2017-09-29T03:23:23.733Z,27.13
2017-09-29T03:25:51.816Z,25.43
2017-09-29T03:28:19.935Z,25.60
2017-09-29T03:30:48.052Z,24.17
2017-09-29T03:33:16.338Z,26.97
2017-09-29T03:35:44.444Z,25.70
2017-09-29T03:38:13.554Z,24.77
2017-09-29T03:40:42.422Z,28.87
2017-09-29T03:43:10.557Z,27.07
2017-09-29T03:45:38.649Z,29.63
2017-09-29T03:48:06.776Z,30.93
2017-09-29T03:50:36.960Z,30.43
2017-09-29T03:53:07.175Z,30.47
2017-09-29T03:55:36.946Z,27.13
2017-09-29T03:58:06.488Z,31.50
2017-09-29T04:00:35.419Z,30.17
2017-09-29T04:03:03.503Z,36.53
2017-09-29T04:05:32.371Z,32.20
2017-09-29T04:08:00.496Z,31.20
2017-09-29T04:10:28.591Z,32.23
2017-09-29T04:12:56.699Z,33.97
2017-09-29T04:15:24.784Z,30.17
2017-09-29T04:17:53.671Z,28.60
2017-09-29T04:20:21.764Z,30.43
2017-09-29T04:22:49.862Z,28.53
2017-09-29T04:25:18.018Z,26.87
2017-09-29T04:27:47.023Z,30.40
2017-09-29T04:30:15.342Z,29.33
2017-09-29T04:32:43.445Z,27.43
2017-09-29T04:35:11.526Z,25.90
2017-09-29T04:37:39.626Z,25.20
2017-09-29T04:40:07.772Z,28.30
2017-09-29T04:42:35.869Z,27.60
2017-09-29T04:45:06.048Z,24.47
2017-09-29T04:47:34.147Z,31.30
2017-09-29T04:50:02.240Z,25.17
2017-09-29T04:52:30.323Z,25.03
2017-09-29T04:54:58.426Z,25.07
2017-09-29T04:57:28.379Z,26.07
2017-09-29T04:59:56.503Z,24.47
2017-09-29T05:02:25.452Z,28.47
2017-09-29T05:04:53.554Z,21.57
2017-09-29T05:07:21.646Z,25.33
2017-09-29T05:09:51.555Z,25.07
2017-09-29T05:12:19.683Z,28.00
2017-09-29T05:14:48.703Z,25.87
2017-09-29T05:17:16.798Z,23.47
2017-09-29T05:19:44.916Z,22.83
2017-09-29T05:22:12.995Z,35.33
2017-09-29T05:24:41.106Z,22.93
2017-09-29T05:27:09.187Z,21.93
2017-09-29T05:29:37.289Z,24.83
2017-09-29T05:32:05.379Z,26.30
2017-09-29T05:34:33.487Z,28.63
2017-09-29T05:37:01.595Z,28.80
2017-09-29T05:39:30.435Z,25.37
2017-09-29T05:41:58.536Z,24.13
2017-09-29T05:44:26.632Z,31.70
2017-09-29T05:46:54.736Z,24.27
2017-09-29T05:49:22.831Z,23.23
2017-09-29T05:51:50.950Z,21.73
2017-09-29T05:54:20.030Z,20.50
2017-09-29T05:56:48.147Z,25.47
2017-09-29T05:59:16.252Z,22.60
2017-09-29T06:01:44.363Z,28.23
2017-09-29T06:04:12.462Z,24.53
2017-09-29T06:06:40.544Z,26.53
2017-09-29T06:09:08.640Z,25.37
2017-09-29T06:11:36.783Z,35.77
2017-09-29T06:14:04.908Z,36.00
2017-09-29T06:16:32.995Z,37.17
2017-09-29T06:19:02.226Z,34.03
2017-09-29T06:21:30.428Z,37.67
2017-09-29T06:23:59.613Z,37.23
2017-09-29T06:26:27.895Z,41.23
2017-09-29T06:28:55.998Z,35.83
2017-09-29T06:31:24.343Z,34.57
2017-09-29T06:33:52.460Z,43.97
2017-09-29T06:36:21.612Z,38.73
2017-09-29T06:38:49.691Z,54.27
2017-09-29T06:41:17.807Z,39.37
2017-09-29T06:43:46.676Z,37.67
2017-09-29T06:46:14.797Z,36.80
2017-09-29T06:48:42.883Z,35.00
2017-09-29T06:51:10.963Z,36.47
2017-09-29T06:53:39.055Z,40.93
2017-09-29T06:56:07.152Z,38.17
2017-09-29T06:58:35.266Z,39.83
2017-09-29T07:01:03.647Z,40.23
2017-09-29T07:03:31.827Z,38.50
2017-09-29T07:05:59.999Z,34.40
2017-09-29T07:08:28.263Z,34.60
2017-09-29T07:10:56.663Z,41.87
2017-09-29T07:13:24.766Z,35.10
2017-09-29T07:15:52.862Z,33.30
2017-09-29T07:18:21.949Z,36.30
2017-09-29T07:20:50.263Z,40.50
2017-09-29T07:23:18.483Z,40.20
2017-09-29T07:25:49.303Z,41.53
2017-09-29T07:28:17.988Z,38.10
2017-09-29T07:30:47.369Z,37.40
2017-09-29T07:33:15.872Z,35.23
2017-09-29T07:35:43.987Z,36.40
2017-09-29T07:38:12.855Z,41.60
2017-09-29T07:40:40.980Z,41.03
2017-09-29T07:43:09.090Z,33.80
2017-09-29T07:45:37.171Z,41.30
2017-09-29T07:48:05.295Z,43.43
2017-09-29T07:50:33.399Z,40.60
2017-09-29T07:53:01.608Z,60.73
2017-09-29T07:55:30.455Z,79.17
2017-09-29T07:57:58.567Z,44.73
2017-09-29T08:00:27.675Z,54.80
2017-09-29T08:02:56.553Z,50.67
2017-09-29T08:05:26.403Z,40.17
2017-09-29T08:07:54.514Z,47.10
2017-09-29T08:10:22.602Z,61.80
2017-09-29T08:12:50.696Z,45.83
2017-09-29T08:15:18.762Z,40.23
2017-09-29T08:17:46.883Z,43.27
2017-09-29T08:20:14.971Z,36.17
2017-09-29T08:22:43.056Z,34.70
2017-09-29T08:25:11.151Z,36.17
2017-09-29T08:27:39.467Z,44.47
2017-09-29T08:30:07.585Z,44.70
2017-09-29T08:32:36.472Z,40.50
2017-09-29T08:35:04.614Z,41.03
2017-09-29T08:37:32.711Z,38.50
2017-09-29T08:40:00.832Z,43.50
2017-09-29T08:42:28.925Z,40.30
2017-09-29T08:44:57.027Z,39.27
2017-09-29T08:47:25.147Z,43.03
2017-09-29T08:49:53.233Z,32.80
2017-09-29T08:52:21.394Z,33.00
2017-09-29T08:54:49.491Z,32.60
2017-09-29T08:57:17.587Z,34.40
2017-09-29T08:59:45.764Z,31.40
2017-09-29T09:02:13.885Z,31.73
2017-09-29T09:04:42.007Z,33.13
2017-09-29T09:07:10.347Z,37.93
2017-09-29T09:09:38.531Z,35.03
2017-09-29T09:12:06.712Z,28.83
2017-09-29T09:14:34.820Z,26.50
2017-09-29T09:17:02.919Z,22.57
2017-09-29T09:19:31.052Z,25.03
2017-09-29T09:21:59.135Z,32.87
2017-09-29T09:24:27.211Z,24.87
2017-09-29T09:26:56.273Z,24.47
2017-09-29T09:29:24.386Z,20.83
2017-09-29T09:31:53.453Z,26.03
2017-09-29T09:34:21.542Z,27.60
2017-09-29T09:36:49.661Z,23.33
2017-09-29T09:39:17.771Z,15.80
2017-09-29T09:41:45.889Z,20.40
2017-09-29T09:44:14.896Z,20.60
2017-09-29T09:46:43.059Z,24.20
2017-09-29T09:49:11.924Z,16.80
2017-09-29T09:51:40.019Z,14.97
2017-09-29T09:54:08.872Z,17.83
2017-09-29T09:56:37.004Z,12.07
2017-09-29T09:59:05.155Z,16.10
2017-09-29T10:01:33.268Z,14.30
2017-09-29T10:04:01.344Z,12.97
2017-09-29T10:06:29.462Z,16.10
2017-09-29T10:08:58.525Z,16.73
2017-09-29T10:11:26.632Z,14.03
2017-09-29T10:13:54.748Z,18.27
2017-09-29T10:16:22.859Z,16.30
2017-09-29T10:18:50.990Z,15.53
2017-09-29T10:21:19.106Z,18.10
2017-09-29T10:23:47.297Z,15.60
2017-09-29T10:26:16.183Z,16.20
2017-09-29T10:28:45.063Z,16.63
2017-09-29T10:31:13.377Z,14.23
2017-09-29T10:33:41.464Z,17.47
2017-09-29T10:36:09.784Z,16.10
2017-09-29T10:38:37.910Z,15.57
2017-09-29T10:41:05.994Z,15.33
2017-09-29T10:43:34.128Z,17.23
2017-09-29T10:46:02.265Z,20.33
2017-09-29T10:48:30.363Z,23.83
2017-09-29T10:50:58.480Z,15.33
2017-09-29T10:53:28.351Z,16.67
2017-09-29T10:55:56.675Z,13.40
2017-09-29T10:58:24.784Z,17.20
2017-09-29T11:00:52.883Z,10.07
2017-09-29T11:03:22.800Z,12.60
2017-09-29T11:05:51.689Z,14.07
2017-09-29T11:08:20.549Z,10.13
2017-09-29T11:10:49.553Z,9.57
2017-09-29T11:13:17.672Z,9.77
2017-09-29T11:15:45.753Z,13.53
2017-09-29T11:18:13.871Z,14.73
2017-09-29T11:20:41.947Z,9.60
2017-09-29T11:23:10.815Z,15.30
2017-09-29T11:25:39.931Z,9.47
2017-09-29T11:28:08.037Z,10.03
2017-09-29T11:30:36.126Z,9.30
2017-09-29T11:33:04.204Z,16.77
2017-09-29T11:35:32.449Z,15.37
2017-09-29T11:38:00.571Z,11.03
2017-09-29T11:40:28.644Z,8.97
2017-09-29T11:42:57.696Z,10.40
2017-09-29T11:45:25.931Z,10.10
2017-09-29T11:47:54.026Z,6.13
2017-09-29T11:50:22.120Z,7.90
2017-09-29T11:52:50.212Z,8.77
2017-09-29T11:55:18.292Z,8.50
2017-09-29T11:57:47.790Z,10.60
2017-09-29T12:00:15.908Z,11.17
2017-09-29T12:02:44.020Z,6.80
2017-09-29T12:05:12.145Z,6.70
2017-09-29T12:07:40.221Z,10.63
2017-09-29T12:10:08.373Z,10.27
2017-09-29T12:12:36.791Z,8.83
2017-09-29T12:15:06.698Z,6.40
2017-09-29T12:17:36.622Z,10.17
2017-09-29T12:20:05.667Z,9.13
2017-09-29T12:22:33.773Z,4.50
2017-09-29T12:25:01.844Z,7.63
2017-09-29T12:27:30.066Z,7.93
2017-09-29T12:29:58.154Z,8.17
2017-09-29T12:32:26.223Z,7.93
2017-09-29T12:34:54.363Z,6.20
2017-09-29T12:37:23.371Z,8.70
2017-09-29T12:39:51.471Z,4.00
2017-09-29T12:42:19.568Z,5.40
2017-09-29T12:44:48.206Z,5.00
2017-09-29T12:47:17.259Z,4.97
2017-09-29T12:49:45.340Z,6.10
2017-09-29T12:52:13.751Z,6.23
2017-09-29T12:54:42.750Z,5.33
2017-09-29T12:57:10.882Z,7.40
2017-09-29T12:59:39.020Z,5.93
2017-09-29T13:02:21.941Z,6.00
2017-09-29T13:04:50.053Z,6.67
2017-09-29T13:07:18.136Z,5.00
2017-09-29T13:09:46.243Z,7.47
2017-09-29T13:12:14.430Z,5.57
2017-09-29T13:14:42.508Z,4.80
2017-09-29T13:17:11.367Z,4.80
2017-09-29T13:19:39.587Z,7.13
2017-09-29T13:22:07.700Z,4.37
2017-09-29T13:24:35.974Z,5.30
2017-09-29T13:27:04.064Z,9.27
2017-09-29T13:29:32.142Z,3.17
2017-09-29T13:32:00.233Z,3.90
2017-09-29T13:34:28.343Z,5.07
2017-09-29T13:36:56.481Z,5.40
2017-09-29T13:39:24.608Z,6.53
2017-09-29T13:41:52.719Z,9.70
2017-09-29T13:44:20.818Z,4.20
2017-09-29T13:46:48.915Z,8.33
2017-09-29T13:49:17.794Z,5.77
2017-09-29T13:51:47.744Z,8.53
2017-09-29T13:54:15.970Z,7.30
2017-09-29T13:56:44.116Z,7.10
2017-09-29T13:59:12.217Z,6.13
2017-09-29T14:01:40.307Z,4.33
2017-09-29T14:04:08.405Z,10.10
2017-09-29T14:06:36.511Z,8.60
2017-09-29T14:09:04.598Z,4.23
2017-09-29T14:11:32.748Z,8.03
2017-09-29T14:14:00.866Z,4.67
2017-09-29T14:16:28.967Z,5.50
2017-09-29T14:18:57.060Z,4.00
2017-09-29T14:21:25.180Z,9.50
2017-09-29T14:23:53.474Z,4.63
2017-09-29T14:26:22.322Z,7.07
2017-09-29T14:28:50.432Z,7.03
2017-09-29T14:31:18.507Z,5.40
2017-09-29T14:33:48.197Z,8.00
2017-09-29T14:36:17.229Z,8.30
2017-09-29T14:38:45.326Z,5.53
2017-09-29T14:41:14.035Z,6.13
2017-09-29T14:43:42.122Z,3.83
2017-09-29T14:46:10.518Z,7.90
2017-09-29T14:48:38.600Z,8.00
2017-09-29T14:51:06.679Z,5.77
2017-09-29T14:53:34.814Z,5.27
2017-09-29T14:56:02.901Z,8.17
2017-09-29T14:58:31.764Z,6.93
2017-09-29T15:01:00.914Z,5.23
2017-09-29T15:03:29.014Z,9.60
2017-09-29T15:05:57.095Z,6.83
2017-09-29T15:08:25.215Z,10.40
2017-09-29T15:10:53.335Z,15.43
2017-09-29T15:13:21.421Z,7.77
2017-09-29T15:15:49.517Z,8.47
2017-09-29T15:18:18.381Z,13.23
2017-09-29T15:20:47.680Z,12.63
2017-09-29T15:23:15.764Z,7.80
2017-09-29T15:25:43.872Z,15.23
2017-09-29T15:28:11.987Z,8.50
2017-09-29T15:30:40.095Z,10.07
2017-09-29T15:33:08.218Z,9.30
2017-09-29T15:35:36.283Z,9.50
2017-09-29T15:38:04.570Z,9.80
2017-09-29T15:40:32.688Z,10.57
2017-09-29T15:43:00.770Z,21.27
2017-09-29T15:45:31.744Z,15.00
2017-09-29T15:47:59.855Z,10.73
2017-09-29T15:50:29.763Z,10.53
2017-09-29T15:52:57.855Z,11.87
2017-09-29T15:55:26.335Z,7.13
2017-09-29T15:57:54.463Z,11.53
2017-09-29T16:00:22.564Z,7.87
2017-09-29T16:02:51.111Z,7.73
2017-09-29T16:05:19.214Z,8.70
2017-09-29T16:07:47.839Z,10.27
2017-09-29T16:10:16.179Z,8.20
2017-09-29T16:12:44.321Z,10.40
2017-09-29T16:15:12.425Z,8.23
2017-09-29T16:17:40.530Z,9.67
2017-09-29T16:20:08.644Z,10.70
2017-09-29T16:22:36.766Z,11.47
2017-09-29T16:25:04.899Z,7.87
2017-09-29T16:27:32.987Z,9.07
2017-09-29T16:30:01.323Z,8.43
2017-09-29T16:32:29.408Z,6.60
2017-09-29T16:34:57.495Z,8.67
2017-09-29T16:37:25.580Z,7.97
2017-09-29T16:39:53.686Z,10.23
2017-09-29T16:42:21.790Z,8.87
2017-09-29T16:44:50.919Z,10.47
2017-09-29T16:47:19.021Z,13.70
2017-09-29T16:49:47.126Z,7.90
2017-09-29T16:52:15.460Z,10.33
2017-09-29T16:54:43.569Z,7.40
2017-09-29T16:57:11.679Z,9.23
2017-09-29T16:59:39.782Z,7.57
2017-09-29T17:02:08.283Z,7.33
2017-09-29T17:04:36.367Z,11.27
2017-09-29T17:07:04.472Z,6.20
2017-09-29T17:09:32.568Z,8.30
2017-09-29T17:12:00.687Z,12.60
2017-09-29T17:14:28.771Z,7.90
2017-09-29T17:16:57.571Z,9.73
2017-09-29T17:19:25.674Z,10.70
2017-09-29T17:21:54.639Z,10.07
2017-09-29T17:24:23.451Z,7.30
2017-09-29T17:26:51.547Z,11.10
2017-09-29T17:29:19.638Z,11.83
2017-09-29T17:31:48.869Z,9.10
2017-09-29T17:34:16.984Z,9.73
2017-09-29T17:36:45.082Z,12.50
2017-09-29T17:39:13.205Z,8.43
2017-09-29T17:41:41.303Z,10.00
2017-09-29T17:44:10.595Z,8.53
2017-09-29T17:46:38.695Z,7.77
2017-09-29T17:49:07.561Z,8.07
2017-09-29T17:51:35.656Z,9.70
2017-09-29T17:54:03.759Z,6.63
2017-09-29T17:56:32.120Z,8.73
2017-09-29T17:59:00.471Z,7.30
2017-09-29T18:01:29.342Z,9.50
2017-09-29T18:03:57.475Z,9.67
2017-09-29T18:06:25.577Z,10.07
2017-09-29T18:08:53.660Z,8.23
2017-09-29T18:11:22.215Z,8.47
2017-09-29T18:13:50.301Z,8.60
2017-09-29T18:16:19.005Z,10.23
2017-09-29T18:18:47.940Z,15.30
2017-09-29T18:21:16.615Z,9.80
2017-09-29T18:23:44.766Z,8.03
2017-09-29T18:26:13.118Z,14.90
2017-09-29T18:28:41.951Z,10.33
2017-09-29T18:31:10.361Z,10.13
2017-09-29T18:33:38.521Z,11.43
2017-09-29T18:36:06.881Z,10.63
2017-09-29T18:38:35.068Z,9.73
2017-09-29T18:41:04.603Z,8.90
2017-09-29T18:43:35.166Z,7.40
2017-09-29T18:46:04.699Z,11.27
2017-09-29T18:48:33.091Z,13.90
2017-09-29T18:51:01.251Z,11.87
2017-09-29T18:53:30.116Z,10.97
2017-09-29T18:55:58.551Z,13.00
2017-09-29T18:58:26.723Z,13.57
2017-09-29T19:00:55.217Z,11.43
2017-09-29T19:03:23.649Z,11.13
2017-09-29T19:05:51.792Z,12.00
2017-09-29T19:08:20.956Z,11.83
2017-09-29T19:10:49.053Z,12.80
2017-09-29T19:13:17.390Z,23.00
2017-09-29T19:15:46.402Z,15.17
2017-09-29T19:18:14.907Z,11.27
2017-09-29T19:20:43.014Z,14.77
2017-09-29T19:23:12.211Z,13.37
2017-09-29T19:25:40.428Z,8.97
2017-09-29T19:28:08.519Z,12.93
2017-09-29T19:30:36.615Z,11.93
2017-09-29T19:33:05.134Z,14.70
2017-09-29T19:35:33.236Z,12.07
2017-09-29T19:38:01.359Z,12.33
2017-09-29T19:40:29.642Z,14.63
2017-09-29T19:42:57.775Z,17.63
2017-09-29T19:45:26.212Z,17.77
2017-09-29T19:47:55.297Z,14.43
2017-09-29T19:50:25.520Z,13.30
2017-09-29T19:52:53.776Z,9.70
2017-09-29T19:55:22.315Z,12.23
2017-09-29T19:57:50.595Z,14.23
2017-09-29T20:00:18.787Z,12.03
2017-09-29T20:02:46.910Z,13.20
2017-09-29T20:05:15.781Z,12.07
2017-09-29T20:07:43.968Z,14.73
2017-09-29T20:10:12.883Z,16.80
2017-09-29T20:12:41.097Z,8.60
2017-09-29T20:15:09.183Z,8.80
2017-09-29T20:17:37.293Z,16.63
2017-09-29T20:20:05.489Z,13.40
2017-09-29T20:22:34.632Z,12.33
2017-09-29T20:25:02.759Z,10.27
2017-09-29T20:27:31.107Z,11.10
2017-09-29T20:30:00.823Z,9.40
2017-09-29T20:32:29.692Z,10.33
2017-09-29T20:34:57.795Z,7.23
2017-09-29T20:37:26.980Z,12.83
2017-09-29T20:39:55.251Z,8.77
2017-09-29T20:42:24.211Z,14.37
2017-09-29T20:44:54.372Z,10.63
2017-09-29T20:47:22.645Z,12.80
2017-09-29T20:49:50.750Z,10.70
2017-09-29T20:52:18.873Z,11.23
2017-09-29T20:54:47.357Z,9.43
2017-09-29T20:57:15.548Z,13.20
2017-09-29T20:59:44.423Z,9.13
2017-09-29T21:02:13.624Z,8.23
2017-09-29T21:04:41.838Z,9.60
2017-09-29T21:07:09.940Z,7.30
2017-09-29T21:09:38.042Z,9.80
2017-09-29T21:12:06.161Z,12.63
2017-09-29T21:14:34.276Z,20.63
2017-09-29T21:17:02.352Z,13.80
2017-09-29T21:19:31.300Z,13.43
2017-09-29T21:21:59.411Z,11.33
2017-09-29T21:24:27.519Z,11.63
2017-09-29T21:26:55.815Z,13.27
2017-09-29T21:29:23.920Z,13.20
2017-09-29T21:31:52.036Z,12.20
2017-09-29T21:34:20.900Z,12.83
2017-09-29T21:36:48.996Z,9.20
2017-09-29T21:39:17.088Z,13.70
2017-09-29T21:41:45.271Z,12.80
2017-09-29T21:44:13.388Z,9.00
2017-09-29T21:46:41.534Z,12.60
2017-09-29T21:49:09.671Z,10.73
2017-09-29T21:51:37.764Z,13.53
2017-09-29T21:54:05.868Z,12.27
2017-09-29T21:56:33.963Z,11.10
2017-09-29T21:59:02.075Z,17.43
2017-09-29T22:01:30.172Z,12.43
2017-09-29T22:03:58.448Z,9.80
2017-09-29T22:06:26.564Z,13.83
2017-09-29T22:08:54.656Z,14.83
2017-09-29T22:11:22.918Z,11.73
2017-09-29T22:13:51.795Z,8.83
2017-09-29T22:16:19.911Z,11.40
2017-09-29T22:18:48.059Z,13.10
2017-09-29T22:21:16.919Z,14.17
2017-09-29T22:23:46.051Z,14.00
2017-09-29T22:26:14.903Z,11.13
2017-09-29T22:28:43.007Z,10.53
2017-09-29T22:31:11.103Z,12.57
2017-09-29T22:33:39.192Z,12.00
2017-09-29T22:36:08.043Z,10.30
2017-09-29T22:38:36.966Z,9.53
2017-09-29T22:41:05.045Z,9.27
2017-09-29T22:43:33.170Z,12.60
2017-09-29T22:46:01.295Z,11.00
2017-09-29T22:48:29.371Z,13.43
2017-09-29T22:50:57.484Z,12.30
2017-09-29T22:53:25.561Z,15.07
2017-09-29T22:55:54.444Z,15.67
2017-09-29T22:58:22.632Z,15.87
2017-09-29T23:00:51.207Z,8.37
2017-09-29T23:03:19.324Z,10.90
2017-09-29T23:05:47.417Z,10.93
2017-09-29T23:08:15.622Z,10.40
2017-09-29T23:10:43.711Z,11.50
2017-09-29T23:13:12.631Z,11.37
2017-09-29T23:15:40.746Z,11.40
2017-09-29T23:18:08.897Z,11.20
2017-09-29T23:20:36.978Z,7.83
2017-09-29T23:23:05.089Z,14.10
2017-09-29T23:25:33.207Z,12.50
2017-09-29T23:28:01.536Z,12.00
2017-09-29T23:30:30.514Z,16.53
2017-09-29T23:32:58.636Z,12.40
2017-09-29T23:35:27.542Z,12.40
2017-09-29T23:37:55.803Z,9.90
2017-09-29T23:40:23.976Z,11.60
2017-09-29T23:42:53.063Z,15.13
2017-09-29T23:45:21.154Z,10.87
2017-09-29T23:47:49.289Z,12.80
2017-09-29T23:50:17.699Z,12.30
2017-09-29T23:52:46.752Z,14.43
2017-09-29T23:55:15.647Z,11.73
2017-09-29T23:57:44.497Z,10.63
